createdAt,value
2018-09-10T00:01:03.067Z,1.90
2018-09-10T00:03:31.370Z,2.00
2018-09-10T00:05:59.694Z,2.17
2018-09-10T00:08:27.994Z,2.00
2018-09-10T00:10:56.338Z,2.00
2018-09-10T00:13:24.642Z,2.13
2018-09-10T00:15:52.974Z,1.77
2018-09-10T00:18:21.297Z,2.30
2018-09-10T00:20:49.603Z,1.80
2018-09-10T00:23:17.927Z,2.00
2018-09-10T00:25:46.249Z,2.10
2018-09-10T00:28:14.569Z,1.97
2018-09-10T00:30:42.973Z,2.07
2018-09-10T00:33:11.293Z,2.27
2018-09-10T00:35:39.598Z,2.13
2018-09-10T00:38:07.930Z,1.90
2018-09-10T00:40:36.243Z,2.80
2018-09-10T00:43:04.578Z,2.40
2018-09-10T00:45:32.882Z,2.03
2018-09-10T00:48:01.210Z,1.80
2018-09-10T00:50:29.539Z,2.17
2018-09-10T00:52:57.870Z,2.43
2018-09-10T00:55:26.175Z,2.10
2018-09-10T00:57:54.494Z,2.20
2018-09-10T01:00:22.818Z,2.10
2018-09-10T01:02:51.154Z,1.83
2018-09-10T01:05:19.458Z,2.10
2018-09-10T01:07:47.778Z,2.17
2018-09-10T01:10:16.137Z,2.10
2018-09-10T01:12:44.500Z,2.30
2018-09-10T01:15:12.797Z,1.87
2018-09-10T01:17:41.117Z,2.20
2018-09-10T01:20:09.435Z,2.17
2018-09-10T01:22:37.798Z,2.90
2018-09-10T01:25:06.286Z,2.30
2018-09-10T01:27:34.601Z,2.40
2018-09-10T01:30:02.949Z,2.30
2018-09-10T01:32:31.254Z,2.30
2018-09-10T01:35:03.578Z,2.17
2018-09-10T01:37:32.584Z,2.50
2018-09-10T01:40:01.340Z,2.10
2018-09-10T01:42:29.849Z,2.50
2018-09-10T01:44:58.557Z,2.07
2018-09-10T01:47:27.018Z,2.33
2018-09-10T01:49:55.630Z,2.50
2018-09-10T01:52:24.197Z,2.13
2018-09-10T01:54:52.550Z,2.33
2018-09-10T01:57:20.858Z,2.60
2018-09-10T01:59:49.178Z,2.50
2018-09-10T02:02:17.490Z,2.13
2018-09-10T02:04:45.807Z,2.80
2018-09-10T02:07:14.114Z,2.27
2018-09-10T02:09:42.433Z,2.33
2018-09-10T02:12:16.246Z,2.30
2018-09-10T02:14:44.573Z,1.90
2018-09-10T02:17:12.934Z,2.50
2018-09-10T02:19:41.210Z,2.50
2018-09-10T02:22:09.514Z,3.63
2018-09-10T02:24:37.837Z,4.30
2018-09-10T02:27:06.146Z,2.77
2018-09-10T02:29:34.469Z,2.90
2018-09-10T02:32:02.810Z,2.40
2018-09-10T02:34:31.122Z,2.33
2018-09-10T02:36:59.439Z,2.37
2018-09-10T02:39:27.738Z,2.40
2018-09-10T02:41:56.055Z,2.10
2018-09-10T02:44:24.358Z,2.47
2018-09-10T02:46:52.681Z,2.50
2018-09-10T02:49:20.999Z,2.40
2018-09-10T02:51:49.314Z,2.80
2018-09-10T02:54:17.634Z,2.73
2018-09-10T02:56:45.958Z,2.50
2018-09-10T02:59:14.286Z,2.53
2018-09-10T03:01:42.614Z,2.20
2018-09-10T03:04:10.942Z,2.40
2018-09-10T03:06:39.237Z,2.50
2018-09-10T03:09:08.194Z,2.50
2018-09-10T03:11:36.686Z,2.60
2018-09-10T03:14:05.030Z,2.90
2018-09-10T03:16:33.350Z,2.60
2018-09-10T03:19:01.698Z,2.20
2018-09-10T03:21:30.021Z,2.50
2018-09-10T03:23:58.467Z,2.77
2018-09-10T03:26:26.701Z,2.60
2018-09-10T03:28:55.030Z,2.50
2018-09-10T03:31:23.322Z,2.23
2018-09-10T03:33:51.814Z,2.53
2018-09-10T03:36:20.123Z,2.50
2018-09-10T03:38:48.447Z,2.17
2018-09-10T03:41:16.742Z,2.53
2018-09-10T03:43:45.072Z,2.90
2018-09-10T03:46:13.465Z,2.50
2018-09-10T03:48:41.810Z,2.77
2018-09-10T03:51:10.111Z,2.50
2018-09-10T03:53:38.410Z,2.43
2018-09-10T03:56:06.757Z,2.83
2018-09-10T03:58:35.058Z,2.20
2018-09-10T04:01:03.394Z,2.47
2018-09-10T04:03:31.702Z,2.33
2018-09-10T04:06:00.026Z,2.60
2018-09-10T04:08:28.330Z,2.60
2018-09-10T04:10:56.765Z,2.70
2018-09-10T04:13:25.074Z,2.97
2018-09-10T04:15:53.378Z,3.10
2018-09-10T04:18:21.826Z,3.10
2018-09-10T04:20:50.127Z,2.90
2018-09-10T04:23:18.451Z,3.17
2018-09-10T04:25:46.848Z,3.00
2018-09-10T04:28:15.118Z,3.10
2018-09-10T04:30:43.442Z,2.80
2018-09-10T04:33:11.753Z,2.80
2018-09-10T04:35:40.069Z,2.60
2018-09-10T04:38:08.374Z,3.50
2018-09-10T04:40:36.698Z,3.10
2018-09-10T04:43:04.998Z,3.00
2018-09-10T04:45:33.311Z,2.80
2018-09-10T04:48:01.686Z,3.07
2018-09-10T04:50:29.986Z,2.80
2018-09-10T04:52:58.306Z,2.70
2018-09-10T04:55:26.634Z,2.93
2018-09-10T04:57:55.024Z,2.63
2018-09-10T05:00:23.319Z,2.83
2018-09-10T05:02:51.646Z,2.90
2018-09-10T05:05:20.011Z,2.93
2018-09-10T05:07:48.338Z,3.53
2018-09-10T05:10:16.650Z,3.30
2018-09-10T05:12:44.986Z,3.10
2018-09-10T05:15:13.342Z,3.37
2018-09-10T05:17:41.665Z,3.40
2018-09-10T05:20:09.986Z,3.80
2018-09-10T05:22:38.319Z,3.40
2018-09-10T05:25:06.631Z,3.03
2018-09-10T05:27:34.958Z,3.30
2018-09-10T05:30:03.265Z,2.93
2018-09-10T05:32:31.582Z,3.17
2018-09-10T05:34:59.957Z,3.10
2018-09-10T05:37:28.277Z,3.13
2018-09-10T05:39:56.575Z,3.10
2018-09-10T05:42:24.894Z,3.37
2018-09-10T05:44:53.198Z,2.80
2018-09-10T05:47:21.541Z,2.80
2018-09-10T05:49:49.836Z,3.67
2018-09-10T05:52:18.166Z,3.37
2018-09-10T05:54:46.469Z,3.10
2018-09-10T05:57:14.791Z,3.20
2018-09-10T05:59:43.230Z,3.13
2018-09-10T06:02:11.557Z,2.53
2018-09-10T06:04:40.509Z,2.90
2018-09-10T06:07:08.834Z,3.20
2018-09-10T06:09:37.150Z,2.70
2018-09-10T06:12:05.486Z,3.23
2018-09-10T06:14:33.799Z,3.53
2018-09-10T06:17:02.155Z,2.73
2018-09-10T06:19:30.459Z,2.70
2018-09-10T06:21:58.777Z,2.17
2018-09-10T06:24:27.097Z,3.03
2018-09-10T06:26:55.398Z,3.03
2018-09-10T06:29:23.732Z,2.70
2018-09-10T06:31:52.067Z,2.80
2018-09-10T06:34:20.469Z,2.73
2018-09-10T06:36:48.739Z,2.70
2018-09-10T06:39:17.110Z,2.60
2018-09-10T06:41:45.421Z,2.37
2018-09-10T06:44:13.741Z,2.70
2018-09-10T06:46:42.050Z,2.27
2018-09-10T06:49:10.394Z,2.57
2018-09-10T06:51:38.714Z,2.50
2018-09-10T06:54:07.050Z,2.90
2018-09-10T06:56:35.379Z,2.70
2018-09-10T06:59:03.722Z,2.73
2018-09-10T07:01:32.032Z,2.60
2018-09-10T07:04:00.350Z,2.30
2018-09-10T07:06:28.768Z,2.20
2018-09-10T07:08:57.071Z,2.20
2018-09-10T07:11:25.378Z,2.23
2018-09-10T07:13:53.706Z,2.40
2018-09-10T07:16:22.038Z,2.50
2018-09-10T07:18:50.511Z,2.60
2018-09-10T07:21:18.707Z,2.20
2018-09-10T07:23:47.032Z,2.67
2018-09-10T07:26:15.337Z,2.37
2018-09-10T07:28:43.670Z,2.57
2018-09-10T07:31:11.974Z,2.27
2018-09-10T07:33:40.782Z,2.57
2018-09-10T07:36:09.099Z,2.40
2018-09-10T07:38:37.426Z,2.20
2018-09-10T07:41:05.928Z,2.27
2018-09-10T07:43:34.362Z,2.10
2018-09-10T07:46:02.614Z,2.53
2018-09-10T07:48:30.946Z,2.83
2018-09-10T07:50:59.250Z,2.73
2018-09-10T07:53:27.583Z,2.07
2018-09-10T07:55:55.888Z,2.47
2018-09-10T07:58:24.243Z,2.00
2018-09-10T08:00:52.562Z,1.70
2018-09-10T08:03:20.895Z,1.80
2018-09-10T08:05:49.273Z,2.30
2018-09-10T08:08:17.605Z,1.80
2018-09-10T08:10:45.915Z,2.00
2018-09-10T08:13:14.262Z,1.90
2018-09-10T08:15:42.615Z,2.33
2018-09-10T08:18:10.930Z,2.17
2018-09-10T08:20:39.252Z,2.10
2018-09-10T08:23:07.578Z,2.03
2018-09-10T08:25:35.905Z,1.70
2018-09-10T08:28:04.255Z,1.97
2018-09-10T08:30:32.667Z,2.10
2018-09-10T08:33:00.910Z,2.00
2018-09-10T08:35:29.250Z,1.50
2018-09-10T08:37:57.569Z,1.70
2018-09-10T08:40:25.911Z,1.97
2018-09-10T08:42:54.272Z,2.20
2018-09-10T08:45:22.557Z,2.20
2018-09-10T08:47:50.863Z,2.47
2018-09-10T08:50:19.194Z,1.80
2018-09-10T08:52:47.503Z,2.50
2018-09-10T08:55:15.935Z,2.10
2018-09-10T08:57:44.169Z,2.10
2018-09-10T09:00:12.552Z,2.10
2018-09-10T09:02:40.881Z,1.80
2018-09-10T09:05:09.216Z,1.80
2018-09-10T09:07:37.722Z,1.60
2018-09-10T09:10:06.090Z,1.73
2018-09-10T09:12:34.409Z,1.70
2018-09-10T09:15:02.754Z,1.60
2018-09-10T09:17:31.874Z,1.60
2018-09-10T09:20:00.187Z,1.70
2018-09-10T09:22:28.502Z,1.33
2018-09-10T09:24:56.835Z,1.60
2018-09-10T09:27:25.147Z,1.50
2018-09-10T09:29:53.570Z,1.60
2018-09-10T09:32:21.840Z,1.63
2018-09-10T09:34:55.268Z,1.63
2018-09-10T09:37:29.832Z,1.60
2018-09-10T09:40:03.732Z,1.40
2018-09-10T09:42:37.549Z,1.73
2018-09-10T09:45:11.371Z,1.67
2018-09-10T09:47:39.678Z,1.60
2018-09-10T09:50:08.014Z,1.50
2018-09-10T09:52:36.322Z,2.77
2018-09-10T09:55:04.694Z,2.10
2018-09-10T09:57:33.002Z,1.47
2018-09-10T10:00:01.335Z,1.70
2018-09-10T10:02:35.094Z,1.30
2018-09-10T10:05:03.462Z,1.40
2018-09-10T10:07:31.810Z,2.40
2018-09-10T10:10:00.117Z,1.40
2018-09-10T10:12:28.475Z,1.30
2018-09-10T10:14:56.790Z,1.37
2018-09-10T10:17:25.118Z,1.40
2018-09-10T10:19:53.459Z,1.20
2018-09-10T10:22:21.799Z,1.20
2018-09-10T10:24:50.153Z,1.23
2018-09-10T10:27:18.478Z,1.10
2018-09-10T10:29:46.785Z,1.30
2018-09-10T10:32:15.114Z,1.40
2018-09-10T10:34:43.417Z,1.10
2018-09-10T10:37:11.758Z,1.30
2018-09-10T10:39:40.094Z,1.20
2018-09-10T10:42:08.438Z,1.10
2018-09-10T10:44:36.753Z,1.67
2018-09-10T10:47:05.642Z,1.60
2018-09-10T10:49:33.982Z,1.40
2018-09-10T10:52:02.343Z,1.50
2018-09-10T10:54:30.658Z,1.20
2018-09-10T10:56:58.987Z,1.10
2018-09-10T10:59:27.293Z,1.33
2018-09-10T11:01:55.622Z,1.23
2018-09-10T11:04:23.931Z,1.30
2018-09-10T11:06:52.258Z,1.40
2018-09-10T11:09:20.562Z,1.27
2018-09-10T11:11:48.908Z,1.00
2018-09-10T11:14:17.229Z,1.17
2018-09-10T11:16:45.616Z,1.10
2018-09-10T11:19:13.886Z,1.10
2018-09-10T11:21:42.214Z,1.23
2018-09-10T11:24:10.578Z,1.20
2018-09-10T11:26:38.906Z,1.13
2018-09-10T11:29:07.249Z,1.20
2018-09-10T11:31:35.571Z,1.10
2018-09-10T11:34:03.889Z,0.97
2018-09-10T11:36:32.222Z,1.00
2018-09-10T11:39:00.533Z,0.93
2018-09-10T11:41:28.870Z,1.13
2018-09-10T11:43:57.197Z,0.90
2018-09-10T11:46:25.542Z,1.00
2018-09-10T11:48:53.846Z,1.10
2018-09-10T11:51:22.166Z,0.90
2018-09-10T11:53:50.495Z,1.10
2018-09-10T11:56:18.810Z,0.97
2018-09-10T11:58:47.117Z,1.00
2018-09-10T12:01:15.446Z,0.93
2018-09-10T12:03:43.818Z,1.03
2018-09-10T12:06:12.138Z,0.93
2018-09-10T12:08:40.456Z,1.20
2018-09-10T12:11:08.794Z,1.03
2018-09-10T12:13:37.158Z,1.10
2018-09-10T12:16:05.698Z,1.10
2018-09-10T12:18:34.011Z,1.02
2018-09-10T12:21:02.325Z,1.03
2018-09-10T12:23:30.628Z,0.90
2018-09-10T12:25:58.934Z,1.03
2018-09-10T12:28:27.247Z,0.90
2018-09-10T12:30:55.545Z,1.00
2018-09-10T12:33:23.901Z,1.00
2018-09-10T12:35:52.233Z,1.30
2018-09-10T12:38:20.664Z,1.03
2018-09-10T12:40:48.994Z,1.10
2018-09-10T12:43:17.334Z,1.10
2018-09-10T12:45:45.650Z,0.90
2018-09-10T12:48:13.970Z,0.93
2018-09-10T12:50:42.283Z,0.90
2018-09-10T12:53:10.613Z,1.10
2018-09-10T12:55:38.918Z,1.20
2018-09-10T12:58:07.282Z,1.23
2018-09-10T13:00:35.619Z,1.30
2018-09-10T13:03:03.954Z,1.50
2018-09-10T13:05:32.362Z,1.40
2018-09-10T13:08:00.714Z,1.60
2018-09-10T13:10:29.040Z,1.60
2018-09-10T13:12:57.375Z,1.60
2018-09-10T13:15:25.682Z,1.80
2018-09-10T13:17:53.986Z,1.50
2018-09-10T13:20:22.327Z,1.50
2018-09-10T13:22:50.779Z,1.47
2018-09-10T13:25:19.939Z,1.80
2018-09-10T13:27:48.383Z,1.90
2018-09-10T13:30:16.686Z,1.90
2018-09-10T13:32:45.009Z,1.60
2018-09-10T13:35:13.498Z,1.80
2018-09-10T13:37:41.830Z,1.63
2018-09-10T13:40:10.142Z,2.00
2018-09-10T13:42:38.462Z,1.90
2018-09-10T13:45:06.815Z,1.93
2018-09-10T13:47:35.142Z,2.07
2018-09-10T13:50:03.506Z,1.50
2018-09-10T13:52:31.820Z,1.90
2018-09-10T13:55:00.149Z,2.20
2018-09-10T13:57:28.456Z,1.93
2018-09-10T13:59:56.786Z,1.90
2018-09-10T14:02:25.098Z,1.93
2018-09-10T14:04:53.442Z,2.10
2018-09-10T14:07:21.783Z,2.00
2018-09-10T14:09:50.118Z,1.97
2018-09-10T14:12:18.445Z,1.97
2018-09-10T14:14:46.794Z,1.87
2018-09-10T14:17:15.116Z,2.00
2018-09-10T14:19:43.447Z,2.30
2018-09-10T14:22:11.795Z,1.97
2018-09-10T14:24:40.134Z,2.30
2018-09-10T14:27:08.466Z,2.10
2018-09-10T14:29:36.798Z,2.53
2018-09-10T14:32:05.114Z,2.37
2018-09-10T14:34:33.472Z,2.17
2018-09-10T14:37:01.799Z,2.20
2018-09-10T14:39:30.134Z,2.10
2018-09-10T14:41:58.446Z,2.13
2018-09-10T14:44:26.767Z,2.23
2018-09-10T14:46:55.095Z,2.20
2018-09-10T14:49:23.410Z,1.97
2018-09-10T14:51:51.723Z,2.30
2018-09-10T14:54:20.039Z,2.37
2018-09-10T14:56:48.349Z,2.90
2018-09-10T14:59:16.658Z,2.43
2018-09-10T15:01:44.962Z,2.87
2018-09-10T15:04:13.311Z,2.00
2018-09-10T15:06:41.619Z,2.07
2018-09-10T15:09:10.237Z,2.10
2018-09-10T15:11:38.578Z,2.10
2018-09-10T15:14:06.958Z,2.83
2018-09-10T15:16:35.266Z,2.33
2018-09-10T15:19:03.763Z,1.90
2018-09-10T15:21:32.070Z,2.27
2018-09-10T15:24:00.430Z,2.17
2018-09-10T15:26:28.754Z,2.17
2018-09-10T15:28:57.074Z,2.33
2018-09-10T15:31:25.409Z,2.07
2018-09-10T15:33:54.023Z,2.03
2018-09-10T15:36:22.351Z,1.90
2018-09-10T15:38:50.682Z,2.50
2018-09-10T15:41:19.046Z,2.10
2018-09-10T15:43:47.382Z,1.87
2018-09-10T15:46:15.702Z,2.03
2018-09-10T15:48:44.046Z,2.50
2018-09-10T15:51:12.391Z,2.00
2018-09-10T15:53:40.711Z,2.60
2018-09-10T15:56:09.018Z,2.30
2018-09-10T15:58:37.386Z,2.30
2018-09-10T16:01:05.977Z,2.03
2018-09-10T16:03:34.321Z,2.20
2018-09-10T16:06:02.630Z,2.13
2018-09-10T16:08:30.958Z,2.07
2018-09-10T16:10:59.270Z,2.40
2018-09-10T16:13:27.599Z,2.17
2018-09-10T16:15:55.922Z,2.20
2018-09-10T16:18:24.259Z,2.40
2018-09-10T16:20:52.570Z,2.70
2018-09-10T16:23:20.911Z,2.20
2018-09-10T16:25:49.213Z,2.37
2018-09-10T16:28:17.545Z,2.43
2018-09-10T16:30:45.872Z,2.10
2018-09-10T16:33:14.182Z,2.40
2018-09-10T16:35:42.560Z,2.50
2018-09-10T16:38:10.879Z,2.10
2018-09-10T16:40:39.257Z,2.23
2018-09-10T16:43:07.594Z,2.63
2018-09-10T16:45:35.946Z,2.60
2018-09-10T16:48:04.260Z,2.70
2018-09-10T16:50:32.644Z,2.30
2018-09-10T16:53:00.949Z,2.40
2018-09-10T16:55:29.390Z,2.73
2018-09-10T16:57:57.707Z,2.37
2018-09-10T17:00:26.029Z,2.47
2018-09-10T17:02:54.342Z,2.70
2018-09-10T17:05:22.678Z,2.40
2018-09-10T17:07:51.009Z,2.37
2018-09-10T17:10:19.347Z,2.57
2018-09-10T17:12:47.654Z,2.77
2018-09-10T17:15:16.002Z,2.93
2018-09-10T17:17:44.314Z,2.40
2018-09-10T17:20:12.642Z,3.03
2018-09-10T17:22:40.992Z,2.70
2018-09-10T17:25:09.330Z,2.87
2018-09-10T17:27:37.662Z,2.60
2018-09-10T17:30:06.086Z,2.30
2018-09-10T17:32:34.402Z,2.97
2018-09-10T17:35:02.914Z,2.40
2018-09-10T17:37:31.218Z,2.40
2018-09-10T17:39:59.559Z,2.70
2018-09-10T17:42:28.037Z,2.73
2018-09-10T17:44:56.369Z,2.30
2018-09-10T17:47:24.676Z,2.53
2018-09-10T17:49:53.014Z,2.40
2018-09-10T17:52:21.336Z,2.50
2018-09-10T17:54:49.687Z,2.57
2018-09-10T17:57:18.006Z,3.03
2018-09-10T17:59:46.407Z,2.80
2018-09-10T18:02:14.733Z,3.20
2018-09-10T18:04:43.041Z,2.87
2018-09-10T18:07:11.383Z,3.00
2018-09-10T18:09:39.690Z,2.90
2018-09-10T18:12:08.035Z,2.90
2018-09-10T18:14:36.391Z,3.00
2018-09-10T18:17:04.727Z,2.57
2018-09-10T18:19:33.047Z,2.87
2018-09-10T18:22:01.386Z,2.70
2018-09-10T18:24:29.694Z,2.90
2018-09-10T18:26:58.026Z,2.83
2018-09-10T18:29:26.343Z,2.73
2018-09-10T18:31:54.679Z,2.90
2018-09-10T18:34:22.995Z,2.87
2018-09-10T18:36:51.333Z,3.40
2018-09-10T18:39:19.647Z,2.70
2018-09-10T18:41:47.992Z,2.80
2018-09-10T18:44:16.297Z,2.90
2018-09-10T18:46:44.642Z,3.40
2018-09-10T18:49:12.951Z,3.03
2018-09-10T18:51:41.289Z,2.70
2018-09-10T18:54:09.590Z,2.80
2018-09-10T18:56:37.929Z,3.30
2018-09-10T18:59:06.250Z,3.20
2018-09-10T19:01:34.683Z,3.00
2018-09-10T19:04:02.930Z,3.00
2018-09-10T19:06:31.312Z,3.27
2018-09-10T19:08:59.618Z,3.30
2018-09-10T19:11:27.970Z,2.97
2018-09-10T19:13:56.282Z,3.50
2018-09-10T19:16:24.619Z,3.33
2018-09-10T19:18:52.930Z,3.43
2018-09-10T19:21:21.256Z,3.50
2018-09-10T19:23:49.578Z,3.97
2018-09-10T19:26:17.909Z,3.67
2018-09-10T19:28:46.215Z,4.63
2018-09-10T19:31:14.542Z,4.23
2018-09-10T19:33:42.850Z,4.67
2018-09-10T19:36:11.207Z,4.10
2018-09-10T19:38:39.534Z,4.20
2018-09-10T19:41:07.858Z,4.17
2018-09-10T19:43:36.161Z,4.43
2018-09-10T19:46:04.490Z,3.90
2018-09-10T19:48:32.822Z,4.37
2018-09-10T19:51:01.127Z,4.40
2018-09-10T19:53:29.458Z,4.20
2018-09-10T19:55:57.761Z,4.23
2018-09-10T19:58:26.091Z,4.43
2018-09-10T20:00:54.415Z,4.57
2018-09-10T20:03:22.758Z,4.37
2018-09-10T20:05:51.067Z,4.57
2018-09-10T20:08:19.393Z,4.77
2018-09-10T20:10:47.706Z,4.80
2018-09-10T20:13:16.080Z,4.47
2018-09-10T20:15:44.386Z,4.23
2018-09-10T20:18:14.827Z,4.80
2018-09-10T20:20:43.151Z,4.47
2018-09-10T20:23:11.498Z,4.57
2018-09-10T20:25:39.810Z,4.77
2018-09-10T20:28:08.126Z,4.90
2018-09-10T20:30:36.473Z,4.87
2018-09-10T20:33:04.785Z,4.03
2018-09-10T20:35:33.086Z,4.80
2018-09-10T20:38:01.423Z,4.47
2018-09-10T20:40:29.735Z,4.43
2018-09-10T20:42:58.336Z,4.73
2018-09-10T20:45:26.605Z,5.20
2018-09-10T20:47:54.930Z,4.77
2018-09-10T20:50:23.242Z,4.90
2018-09-10T20:52:51.611Z,4.93
2018-09-10T20:55:19.923Z,4.87
2018-09-10T20:57:48.249Z,4.73
2018-09-10T21:00:16.578Z,4.23
2018-09-10T21:02:44.901Z,4.37
2018-09-10T21:05:13.238Z,4.67
2018-09-10T21:07:41.654Z,4.90
2018-09-10T21:10:09.923Z,4.87
2018-09-10T21:12:38.262Z,4.73
2018-09-10T21:15:06.673Z,4.87
2018-09-10T21:17:35.005Z,4.73
2018-09-10T21:20:03.337Z,4.83
2018-09-10T21:22:31.666Z,5.60
2018-09-10T21:24:59.997Z,5.30
2018-09-10T21:27:28.298Z,5.20
2018-09-10T21:29:56.659Z,5.07
2018-09-10T21:32:24.966Z,5.10
2018-09-10T21:34:53.318Z,5.10
2018-09-10T21:37:21.635Z,5.40
2018-09-10T21:39:49.986Z,4.60
2018-09-10T21:42:18.297Z,5.10
2018-09-10T21:44:46.658Z,5.57
2018-09-10T21:47:14.959Z,5.17
2018-09-10T21:49:43.282Z,5.17
2018-09-10T21:52:11.588Z,5.40
2018-09-10T21:54:39.914Z,4.70
2018-09-10T21:57:08.225Z,4.57
2018-09-10T21:59:36.556Z,5.17
2018-09-10T22:02:04.907Z,5.20
2018-09-10T22:04:33.246Z,5.20
2018-09-10T22:07:01.558Z,5.53
2018-09-10T22:09:29.886Z,5.33
2018-09-10T22:12:02.698Z,5.60
2018-09-10T22:14:31.707Z,5.23
2018-09-10T22:17:00.055Z,5.83
2018-09-10T22:19:28.416Z,5.33
2018-09-10T22:21:56.822Z,5.47
2018-09-10T22:24:25.160Z,5.40
2018-09-10T22:26:53.550Z,5.13
2018-09-10T22:29:21.922Z,4.60
2018-09-10T22:31:50.238Z,5.03
2018-09-10T22:34:18.570Z,5.07
2018-09-10T22:36:46.873Z,5.63
2018-09-10T22:39:15.698Z,5.13
2018-09-10T22:41:44.354Z,5.07
2018-09-10T22:44:12.750Z,4.97
2018-09-10T22:46:41.019Z,5.17
2018-09-10T22:49:09.354Z,5.47
2018-09-10T22:51:38.277Z,5.33
2018-09-10T22:54:06.811Z,5.07
2018-09-10T22:56:35.117Z,5.50
2018-09-10T22:59:03.462Z,6.00
2018-09-10T23:01:31.766Z,5.50
2018-09-10T23:04:00.126Z,5.60
2018-09-10T23:06:28.427Z,6.03
2018-09-10T23:08:56.742Z,6.00
2018-09-10T23:11:25.110Z,5.53
2018-09-10T23:13:53.438Z,5.37
2018-09-10T23:16:21.791Z,5.60
2018-09-10T23:18:50.090Z,5.90
2018-09-10T23:21:18.438Z,5.20
2018-09-10T23:23:46.753Z,5.10
2018-09-10T23:26:15.102Z,5.50
2018-09-10T23:28:43.410Z,5.20
2018-09-10T23:31:11.718Z,5.27
2018-09-10T23:33:40.067Z,5.23
2018-09-10T23:36:08.369Z,5.67
2018-09-10T23:38:36.702Z,5.90
2018-09-10T23:41:05.030Z,5.23
2018-09-10T23:43:33.375Z,4.93
2018-09-10T23:46:01.682Z,5.10
2018-09-10T23:48:30.026Z,4.90
2018-09-10T23:50:58.342Z,4.97
2018-09-10T23:53:26.679Z,4.80
2018-09-10T23:55:55.291Z,4.70
2018-09-10T23:58:23.622Z,4.97
